Time;durP1;ratioP1;P1;durP2;ratioP2;P2;SDS_P1;SDS_P2;PMS_P1;PMS_P2;Temp;Humidity;BMP_temperature;BMP_pressure;BME280_temperature;BME280_humidity;BME280_pressure;Samples;Min_cycle;Max_cycle;Signal;HPM_P1;HPM_P2
2021/07/03 00:00:37;;;;;;;15.55;11.40;;;;;;;14.71;89.65;95952.31;3573950;40;20098;-63
2021/07/03 00:03:05;;;;;;;13.93;12.48;;;;;;;14.72;90.00;95945.91;3565745;40;20074;-63
2021/07/03 00:05:33;;;;;;;13.43;12.00;;;;;;;14.72;90.35;95945.91;3573971;40;20071;-63
2021/07/03 00:08:00;;;;;;;12.55;11.35;;;;;;;14.73;89.95;95949.38;3573865;40;20058;-62
2021/07/03 00:10:28;;;;;;;15.50;13.27;;;;;;;14.74;90.31;95949.09;3573628;40;20045;-63
2021/07/03 00:12:55;;;;;;;14.20;12.95;;;;;;;14.73;90.40;95952.81;3573533;40;20045;-63
2021/07/03 00:15:23;;;;;;;13.77;12.43;;;;;;;14.75;89.85;95947.25;3583275;40;20044;-63
2021/07/03 00:17:52;;;;;;;14.65;12.77;;;;;;;14.74;90.33;95951.75;3583408;40;20078;-63
2021/07/03 00:20:22;;;;;;;13.32;12.00;;;;;;;14.78;90.96;95956.50;3573945;40;20055;-63
2021/07/03 00:22:51;;;;;;;13.80;12.50;;;;;;;14.81;89.91;95958.59;3573663;40;20426;-63
2021/07/03 00:25:19;;;;;;;13.93;11.88;;;;;;;14.79;90.54;95942.94;3572753;40;20059;-63
2021/07/03 00:27:47;;;;;;;14.75;13.18;;;;;;;14.80;90.46;95955.13;3564548;40;20048;-63
2021/07/03 00:30:15;;;;;;;12.50;11.30;;;;;;;14.79;90.92;95950.91;3557018;40;20051;-63
2021/07/03 00:32:43;;;;;;;14.30;12.70;;;;;;;14.80;90.47;95955.13;3582013;40;20430;-62
2021/07/03 00:35:12;;;;;;;14.50;12.98;;;;;;;14.82;90.84;95958.31;3583685;40;20140;-63
2021/07/03 00:37:39;;;;;;;12.82;11.63;;;;;;;14.79;90.66;95958.09;3582792;40;20044;-63
2021/07/03 00:40:08;;;;;;;13.05;11.75;;;;;;;14.81;90.02;95959.38;3573614;40;20056;-63
2021/07/03 00:42:36;;;;;;;14.30;13.00;;;;;;;14.81;90.14;95963.91;3576698;40;20312;-63
2021/07/03 00:45:06;;;;;;;12.82;11.57;;;;;;;14.79;90.49;95964.19;3583160;40;20048;-63
2021/07/03 00:47:36;;;;;;;13.20;11.90;;;;;;;14.83;90.84;95959.13;3583231;40;20042;-62
2021/07/03 00:50:09;;;;;;;14.38;13.05;;;;;;;14.82;90.51;95957.53;3583771;40;20059;-63
2021/07/03 00:52:40;;;;;;;13.32;11.65;;;;;;;14.82;89.91;95954.88;3582711;40;20033;-65
2021/07/03 00:55:10;;;;;;;12.70;11.52;;;;;;;14.78;90.79;95948.53;3575461;40;20051;-64
2021/07/03 00:57:42;;;;;;;12.70;11.43;;;;;;;14.73;90.62;95939.53;3566459;40;20058;-64
2021/07/03 01:00:12;;;;;;;11.13;10.02;;;;;;;14.70;90.37;95949.94;3582943;40;20032;-64
2021/07/03 01:02:40;;;;;;;11.80;10.52;;;;;;;14.70;90.44;95949.94;3584307;40;20074;-64
2021/07/03 01:05:10;;;;;;;10.95;9.95;;;;;;;14.64;90.41;95941.19;3584741;40;20195;-64
2021/07/03 01:07:38;;;;;;;12.00;9.90;;;;;;;14.62;89.90;95943.34;3584565;40;20084;-64
2021/07/03 01:10:22;;;;;;;10.93;10.02;;;;;;;14.58;89.23;95935.16;3567766;40;20332;-64
2021/07/03 01:12:57;;;;;;;10.70;9.73;;;;;;;14.56;89.75;95939.94;3584034;40;20055;-65
2021/07/03 01:15:27;;;;;;;10.98;9.98;;;;;;;14.54;89.88;95928.81;3583597;40;20531;-64
2021/07/03 01:17:57;;;;;;;12.30;11.15;;;;;;;14.56;90.57;95934.63;3575022;40;20447;-64
2021/07/03 01:20:25;;;;;;;10.55;9.55;;;;;;;14.56;89.96;95931.22;3574047;40;20040;-64
2021/07/03 01:22:54;;;;;;;11.45;10.35;;;;;;;14.55;90.39;95921.66;3584161;40;20082;-64
2021/07/03 01:25:23;;;;;;;11.75;10.55;;;;;;;14.56;91.60;95931.22;3565986;40;20050;-64
2021/07/03 01:27:58;;;;;;;11.07;10.07;;;;;;;14.58;91.79;95921.09;3578927;40;20045;-64
2021/07/03 01:30:27;;;;;;;12.63;11.33;;;;;;;14.55;91.28;95929.63;3575408;40;20044;-65
2021/07/03 01:32:56;;;;;;;14.30;12.60;;;;;;;14.59;90.78;95933.28;3584307;40;20300;-64
2021/07/03 01:35:34;;;;;;;15.48;13.75;;;;;;;14.52;91.07;95935.47;3574856;40;20066;-64
2021/07/03 01:38:23;;;;;;;13.35;11.25;;;;;;;14.49;91.17;95928.88;3584153;40;20044;-64
2021/07/03 01:40:54;;;;;;;12.52;10.98;;;;;;;14.47;91.31;95931.00;3584434;40;20080;-64
2021/07/03 01:43:30;;;;;;;11.07;9.98;;;;;;;14.48;90.82;95921.19;3575715;40;20047;-64
2021/07/03 01:46:02;;;;;;;11.93;9.45;;;;;;;14.48;89.52;95921.97;3575262;40;20712;-64
2021/07/03 01:48:34;;;;;;;10.93;9.93;;;;;;;14.46;90.71;95910.84;3565220;40;20298;-65
2021/07/03 01:51:10;;;;;;;10.25;9.10;;;;;;;14.44;90.66;95920.94;3583242;40;20315;-64
2021/07/03 01:53:40;;;;;;;11.48;8.60;;;;;;;14.42;89.54;95923.09;3584699;40;20560;-64
2021/07/03 01:56:09;;;;;;;10.55;9.45;;;;;;;14.43;89.62;95924.69;3571224;40;20431;-64
2021/07/03 01:58:37;;;;;;;10.77;9.68;;;;;;;14.43;90.23;95930.78;3583241;40;20048;-64
2021/07/03 02:01:17;;;;;;;11.45;10.13;;;;;;;14.35;89.40;95917.31;3584729;40;20044;-64
2021/07/03 02:03:47;;;;;;;11.68;10.48;;;;;;;14.41;89.48;95924.97;3585264;40;20055;-65
2021/07/03 02:06:23;;;;;;;10.82;9.70;;;;;;;14.39;89.58;95926.31;3584905;40;20054;-64
2021/07/03 02:08:52;;;;;;;12.18;10.88;;;;;;;14.34;89.61;95929.00;3566072;40;20049;-64
2021/07/03 02:11:20;;;;;;;12.45;9.80;;;;;;;14.33;90.80;95922.13;3579150;40;20052;-64
2021/07/03 02:13:55;;;;;;;12.95;9.93;;;;;;;14.36;89.73;95926.88;3582153;40;20052;-66
2021/07/03 02:16:31;;;;;;;10.90;9.77;;;;;;;14.35;89.39;95928.72;3573907;40;20306;-64
2021/07/03 02:19:01;;;;;;;11.05;9.38;;;;;;;14.35;90.52;95927.94;3578595;40;20054;-64
2021/07/03 02:21:33;;;;;;;10.70;8.88;;;;;;;14.28;90.40;95934.34;3582890;40;20052;-64
2021/07/03 02:24:02;;;;;;;10.98;9.57;;;;;;;14.33;90.17;95932.72;3574297;40;20320;-64
2021/07/03 02:26:30;;;;;;;11.93;10.32;;;;;;;14.37;89.33;95931.13;3566331;40;20358;-64
2021/07/03 02:28:58;;;;;;;11.45;10.23;;;;;;;14.36;90.87;95929.53;3584890;40;20302;-64
2021/07/03 02:31:30;;;;;;;11.98;10.43;;;;;;;14.33;90.47;95936.19;3574995;40;20052;-65
2021/07/03 02:34:03;;;;;;;11.40;10.20;;;;;;;14.32;90.23;95929.31;3567032;40;20037;-64
2021/07/03 02:36:33;;;;;;;10.10;8.07;;;;;;;14.29;90.66;95935.94;3574259;40;20467;-64
2021/07/03 02:39:05;;;;;;;10.05;9.15;;;;;;;14.37;89.66;95937.19;3574174;40;20050;-64
2021/07/03 02:41:38;;;;;;;10.38;9.30;;;;;;;14.43;89.65;95933.44;3584148;40;20429;-64
2021/07/03 02:44:07;;;;;;;10.68;9.70;;;;;;;14.45;90.12;95941.94;3584154;40;20060;-64
2021/07/03 02:46:35;;;;;;;12.02;8.93;;;;;;;14.43;90.26;95941.41;3574662;40;20058;-64
2021/07/03 02:49:04;;;;;;;9.68;8.75;;;;;;;14.42;89.80;95936.34;3569750;40;20048;-65
2021/07/03 02:51:34;;;;;;;9.75;8.77;;;;;;;14.43;89.88;95938.75;3573960;40;20209;-65
2021/07/03 02:54:03;;;;;;;10.23;9.23;;;;;;;14.38;91.05;95944.09;3574242;40;20040;-64
2021/07/03 02:56:33;;;;;;;14.52;10.85;;;;;;;14.36;90.18;95942.78;3565139;40;20071;-64
2021/07/03 02:59:03;;;;;;;10.88;9.70;;;;;;;14.30;89.90;95936.75;3583746;40;20050;-65
2021/07/03 03:01:31;;;;;;;10.32;9.32;;;;;;;14.30;91.01;95939.41;3572312;40;20055;-65
2021/07/03 03:04:02;;;;;;;10.82;9.70;;;;;;;14.34;90.29;95942.28;3564573;40;20052;-64
2021/07/03 03:06:30;;;;;;;16.60;11.07;;;;;;;14.34;89.82;95943.06;3580360;40;20041;-64
2021/07/03 03:09:00;;;;;;;10.20;9.05;;;;;;;14.33;90.39;95943.34;3564559;40;20055;-64
2021/07/03 03:11:29;;;;;;;10.63;9.35;;;;;;;14.35;90.24;95947.28;3564098;40;20053;-64
2021/07/03 03:13:57;;;;;;;9.90;8.90;;;;;;;14.38;90.06;95943.31;3572384;40;20055;-64
2021/07/03 03:16:26;;;;;;;11.10;10.00;;;;;;;14.41;90.15;95948.84;3572516;40;20053;-64
2021/07/03 03:18:57;;;;;;;12.35;10.30;;;;;;;14.43;90.68;95943.25;3572807;40;20045;-65
2021/07/03 03:21:28;;;;;;;11.02;9.93;;;;;;;14.48;89.95;95953.03;3572352;40;20049;-65
2021/07/03 03:23:56;;;;;;;11.05;9.98;;;;;;;14.53;90.13;95956.44;3572689;40;20053;-65
2021/07/03 03:26:25;;;;;;;12.05;9.85;;;;;;;14.56;89.25;95949.78;3580011;40;20045;-64
2021/07/03 03:28:53;;;;;;;12.25;10.82;;;;;;;14.58;89.91;95943.13;3564280;40;20341;-64
2021/07/03 03:31:22;;;;;;;10.05;9.15;;;;;;;14.61;89.63;95947.88;3572222;40;20049;-65
2021/07/03 03:33:54;;;;;;;9.98;8.93;;;;;;;14.64;89.05;95946.50;3572144;40;20078;-64
2021/07/03 03:36:22;;;;;;;11.65;9.02;;;;;;;14.67;88.68;95946.00;3571313;40;20045;-65
2021/07/03 03:38:51;;;;;;;10.02;8.80;;;;;;;14.69;89.17;95949.16;3572440;40;20053;-64
2021/07/03 03:41:21;;;;;;;10.43;9.43;;;;;;;14.71;89.28;95946.22;3572098;40;20041;-64
2021/07/03 03:43:49;;;;;;;9.75;8.75;;;;;;;14.70;88.55;95947.28;3564440;40;20048;-65
2021/07/03 03:46:18;;;;;;;10.18;9.27;;;;;;;14.72;88.75;95950.44;3580224;40;20049;-64
2021/07/03 03:48:49;;;;;;;11.13;10.13;;;;;;;14.74;89.16;95945.66;3572503;40;20057;-64
2021/07/03 03:51:19;;;;;;;8.85;8.05;;;;;;;14.77;88.70;95945.06;3564504;40;20048;-64
2021/07/03 03:53:47;;;;;;;10.05;8.85;;;;;;;14.85;89.26;95951.63;3579081;40;20387;-65
2021/07/03 03:56:14;;;;;;;12.18;9.57;;;;;;;14.87;88.89;95955.63;3572870;40;20473;-64
2021/07/03 03:58:44;;;;;;;9.73;8.75;;;;;;;14.93;87.75;95947.56;3572506;40;20045;-65
2021/07/03 04:01:18;;;;;;;9.93;9.02;;;;;;;14.91;87.62;95938.03;3581921;40;20466;-64
2021/07/03 04:03:45;;;;;;;9.30;8.32;;;;;;;14.94;87.62;95938.53;3581341;40;20305;-64
2021/07/03 04:06:13;;;;;;;11.57;10.40;;;;;;;14.93;87.43;95944.91;3573674;40;20279;-64
2021/07/03 04:08:43;;;;;;;13.35;9.02;;;;;;;14.96;87.25;95936.38;3574203;40;20168;-64
2021/07/03 04:11:11;;;;;;;10.50;9.55;;;;;;;15.00;86.90;95951.47;3573582;40;20317;-65
2021/07/03 04:13:39;;;;;;;10.65;9.60;;;;;;;14.95;87.43;95932.16;3573587;40;20044;-64
2021/07/03 04:16:06;;;;;;;11.02;10.02;;;;;;;14.96;87.61;95945.13;3572527;40;20428;-65
2021/07/03 04:18:35;;;;;;;10.20;9.30;;;;;;;14.95;87.79;95940.94;3581949;40;20745;-64
2021/07/03 04:21:03;;;;;;;11.13;9.55;;;;;;;14.94;88.10;95931.38;3582722;40;20316;-64
2021/07/03 04:23:30;;;;;;;9.68;8.77;;;;;;;14.98;88.07;95935.03;3574888;40;20049;-64
2021/07/03 04:25:58;;;;;;;9.55;8.65;;;;;;;15.05;87.04;95937.34;3575264;40;20130;-65
2021/07/03 04:28:29;;;;;;;8.63;7.82;;;;;;;15.11;86.58;95938.06;3575072;40;20057;-64
2021/07/03 04:30:56;;;;;;;9.50;8.63;;;;;;;15.19;86.41;95937.47;3565711;40;20053;-64
2021/07/03 04:33:24;;;;;;;9.90;9.00;;;;;;;15.24;86.45;95929.41;3584599;40;20052;-64
2021/07/03 04:35:52;;;;;;;9.68;8.68;;;;;;;15.36;85.97;95929.00;3574432;40;20050;-65
2021/07/03 04:38:19;;;;;;;11.00;9.80;;;;;;;15.38;85.99;95926.88;3575071;40;20048;-64
2021/07/03 04:40:47;;;;;;;10.90;9.80;;;;;;;15.41;85.42;95936.13;3584290;40;20048;-65
2021/07/03 04:43:15;;;;;;;9.90;9.07;;;;;;;15.38;85.00;95932.97;3575307;40;20056;-64
2021/07/03 04:45:43;;;;;;;12.85;9.85;;;;;;;15.40;85.19;95931.88;3583751;40;20052;-64
2021/07/03 04:48:10;;;;;;;10.02;8.95;;;;;;;15.46;84.80;95934.19;3582870;40;20048;-64
2021/07/03 04:50:42;;;;;;;9.00;8.05;;;;;;;15.47;84.84;95934.97;3575183;40;20047;-64
2021/07/03 04:53:11;;;;;;;10.20;9.30;;;;;;;15.52;84.62;95937.56;3584544;40;20058;-64
2021/07/03 04:55:39;;;;;;;9.07;8.25;;;;;;;15.50;85.29;95931.75;3569995;40;20043;-64
2021/07/03 04:58:07;;;;;;;9.07;8.18;;;;;;;15.53;84.13;95933.84;3584770;40;20056;-64
2021/07/03 05:00:35;;;;;;;9.35;8.40;;;;;;;15.56;84.92;95922.63;3584517;40;20076;-65
2021/07/03 05:03:03;;;;;;;10.07;8.40;;;;;;;15.64;83.73;95932.63;3575758;40;20048;-65
2021/07/03 05:05:31;;;;;;;10.45;9.43;;;;;;;15.73;83.78;95927.44;3584279;40;20398;-64
2021/07/03 05:07:58;;;;;;;10.55;9.57;;;;;;;15.89;83.70;95914.72;3575618;40;20486;-64
2021/07/03 05:10:26;;;;;;;9.68;8.70;;;;;;;16.05;83.73;95927.81;3584215;40;20052;-64
2021/07/03 05:12:55;;;;;;;9.93;8.68;;;;;;;16.19;82.68;95928.63;3584209;40;20423;-65
2021/07/03 05:15:23;;;;;;;9.68;8.75;;;;;;;16.46;81.13;95927.09;3584246;40;20062;-65
2021/07/03 05:17:51;;;;;;;10.02;9.13;;;;;;;16.62;80.74;95935.63;3583299;40;20362;-64
2021/07/03 05:20:18;;;;;;;10.13;9.05;;;;;;;16.79;80.87;95928.94;3575460;40;20137;-65
2021/07/03 05:22:46;;;;;;;10.20;8.63;;;;;;;16.89;79.37;95937.53;3574790;40;20036;-65
2021/07/03 05:25:14;;;;;;;11.25;9.68;;;;;;;16.83;80.25;95927.25;3584478;40;20057;-64
2021/07/03 05:27:42;;;;;;;9.80;8.90;;;;;;;16.84;80.14;95937.63;3582833;40;20037;-65
2021/07/03 05:30:11;;;;;;;9.50;8.60;;;;;;;16.87;80.12;95931.72;3584474;40;20055;-64
2021/07/03 05:32:39;;;;;;;9.15;8.15;;;;;;;16.85;78.44;95936.53;3575222;40;20056;-65
2021/07/03 05:35:08;;;;;;;9.52;8.63;;;;;;;16.94;79.51;95939.34;3582846;40;20050;-65
2021/07/03 05:37:36;;;;;;;9.65;8.75;;;;;;;17.07;78.32;95937.75;3574891;40;20304;-65
2021/07/03 05:40:05;;;;;;;9.95;8.95;;;;;;;17.11;78.36;95940.63;3574864;40;20049;-65
2021/07/03 05:42:33;;;;;;;10.38;9.45;;;;;;;17.17;78.05;95934.88;3574216;40;20059;-65
2021/07/03 05:45:00;;;;;;;10.02;9.07;;;;;;;17.25;78.52;95937.94;3584560;40;20046;-65
2021/07/03 05:47:28;;;;;;;9.27;8.48;;;;;;;17.30;78.55;95935.16;3582188;40;20171;-65
2021/07/03 05:49:56;;;;;;;11.20;9.95;;;;;;;17.34;77.54;95938.81;3584175;40;20086;-65
2021/07/03 05:52:23;;;;;;;11.00;9.27;;;;;;;17.35;77.52;95932.41;3574492;40;20041;-65
2021/07/03 05:54:51;;;;;;;11.10;10.02;;;;;;;17.33;77.36;95932.72;3569236;40;20051;-65
2021/07/03 05:57:19;;;;;;;14.45;10.27;;;;;;;17.29;78.98;95931.72;3583907;40;20044;-65
2021/07/03 05:59:48;;;;;;;11.55;10.40;;;;;;;17.26;78.42;95940.31;3583343;40;20047;-65
2021/07/03 06:02:16;;;;;;;10.63;9.73;;;;;;;17.39;77.84;95943.25;3584350;40;20079;-65
2021/07/03 06:04:43;;;;;;;11.57;10.45;;;;;;;17.52;77.35;95940.56;3575088;40;20055;-65
2021/07/03 06:07:11;;;;;;;11.73;10.63;;;;;;;17.59;76.59;95947.38;3583728;40;20062;-65
2021/07/03 06:09:39;;;;;;;12.30;11.20;;;;;;;17.67;76.25;95946.66;3574679;40;20040;-65
2021/07/03 06:12:06;;;;;;;15.98;12.00;;;;;;;17.62;76.53;95939.53;3584258;40;20062;-65
2021/07/03 06:14:34;;;;;;;13.90;12.50;;;;;;;17.64;77.31;95942.72;3560372;40;20399;-65
2021/07/03 06:17:02;;;;;;;15.82;13.75;;;;;;;17.77;76.48;95950.97;3574779;40;20406;-65
2021/07/03 06:19:29;;;;;;;12.07;10.88;;;;;;;17.80;75.43;95951.16;3574632;40;20044;-65
2021/07/03 06:21:57;;;;;;;12.60;10.52;;;;;;;18.05;75.22;95956.25;3565937;40;20048;-65
2021/07/03 06:24:24;;;;;;;13.13;11.77;;;;;;;18.31;74.45;95948.41;3575037;40;20044;-65
2021/07/03 06:26:52;;;;;;;12.80;11.23;;;;;;;18.75;73.35;95962.03;3566311;40;20394;-65
2021/07/03 06:29:19;;;;;;;11.95;10.85;;;;;;;19.05;69.91;95965.03;3584151;40;20427;-65
2021/07/03 06:31:47;;;;;;;12.25;10.23;;;;;;;19.41;68.21;95972.06;3584005;40;20060;-65
2021/07/03 06:34:15;;;;;;;13.32;10.27;;;;;;;19.62;65.83;95972.25;3583490;40;20226;-65
2021/07/03 06:36:42;;;;;;;11.15;9.95;;;;;;;19.59;66.06;95972.88;3583801;40;20386;-65
2021/07/03 06:39:10;;;;;;;11.50;9.50;;;;;;;19.49;63.33;95976.63;3574987;40;20508;-65
2021/07/03 06:41:38;;;;;;;10.10;9.27;;;;;;;19.54;62.60;95974.91;3583372;40;20293;-65
2021/07/03 06:44:06;;;;;;;9.80;8.77;;;;;;;19.63;61.16;95979.16;3566839;40;20052;-64
2021/07/03 06:46:33;;;;;;;12.00;10.80;;;;;;;19.55;63.87;95977.25;3583937;40;20048;-65
2021/07/03 06:49:02;;;;;;;10.10;8.93;;;;;;;19.55;62.23;95987.97;3575153;40;20078;-65
2021/07/03 06:51:29;;;;;;;10.52;9.30;;;;;;;19.48;62.83;95987.66;3581983;40;20048;-65
2021/07/03 06:54:00;;;;;;;9.80;8.90;;;;;;;19.35;65.03;95990.13;3574697;40;20082;-65
2021/07/03 06:56:28;;;;;;;13.30;10.13;;;;;;;19.33;63.78;95991.53;3583200;40;20049;-65
2021/07/03 06:58:56;;;;;;;10.13;9.18;;;;;;;19.32;62.76;95988.06;3574625;40;20070;-65
2021/07/03 07:01:23;;;;;;;13.43;8.55;;;;;;;19.40;62.92;95997.22;3582852;40;20037;-64
2021/07/03 07:03:51;;;;;;;11.00;8.38;;;;;;;19.45;63.40;95993.63;3582808;40;20048;-64
2021/07/03 07:06:18;;;;;;;9.98;9.05;;;;;;;19.34;62.73;95996.56;3583998;40;20059;-64
2021/07/03 07:08:46;;;;;;;8.80;8.10;;;;;;;19.24;62.67;95999.53;3581402;40;20059;-65
2021/07/03 07:11:14;;;;;;;9.13;8.32;;;;;;;19.34;62.11;95993.09;3583617;40;20046;-65
2021/07/03 07:13:41;;;;;;;11.82;8.20;;;;;;;19.50;62.53;95988.91;3581386;40;20305;-63
2021/07/03 07:16:09;;;;;;;10.40;8.07;;;;;;;19.97;59.42;95995.59;3574582;40;20051;-64
2021/07/03 07:18:37;;;;;;;10.25;9.15;;;;;;;20.15;58.39;95977.66;3582196;40;20062;-64
2021/07/03 07:21:05;;;;;;;9.02;7.93;;;;;;;20.36;58.06;95998.44;3573666;40;20044;-64
2021/07/03 07:23:33;;;;;;;7.97;7.18;;;;;;;20.58;56.63;95992.91;3582994;40;20048;-63
2021/07/03 07:26:00;;;;;;;8.18;7.47;;;;;;;20.62;56.18;95995.72;3583523;40;20052;-63
2021/07/03 07:28:28;;;;;;;8.30;7.55;;;;;;;20.76;55.48;95992.09;3583430;40;20165;-63
2021/07/03 07:30:56;;;;;;;9.32;7.55;;;;;;;20.79;54.16;95988.78;3583187;40;20051;-65
2021/07/03 07:33:23;;;;;;;10.20;7.57;;;;;;;20.88;55.27;95987.63;3582741;40;20044;-65
2021/07/03 07:35:51;;;;;;;9.82;8.02;;;;;;;20.87;52.69;95991.41;3574049;40;20048;-65
2021/07/03 07:38:19;;;;;;;9.93;7.65;;;;;;;20.78;53.83;95987.97;3582448;40;20304;-63
2021/07/03 07:40:46;;;;;;;8.32;7.45;;;;;;;20.85;53.74;95993.66;3574238;40;20041;-64
2021/07/03 07:43:14;;;;;;;8.77;6.75;;;;;;;20.74;54.44;95979.78;3574683;40;20075;-65
2021/07/03 07:45:42;;;;;;;9.75;7.57;;;;;;;20.88;52.70;95986.84;3566382;40;20380;-63
2021/07/03 07:48:10;;;;;;;6.97;6.25;;;;;;;21.04;51.10;95989.78;3565600;40;20048;-63
2021/07/03 07:50:38;;;;;;;9.48;7.93;;;;;;;21.07;52.06;95985.69;3574618;40;20047;-64
2021/07/03 07:53:06;;;;;;;12.77;7.97;;;;;;;21.14;50.97;95976.03;3574989;40;20052;-63
2021/07/03 07:55:33;;;;;;;11.55;5.78;;;;;;;21.40;49.67;95971.66;3563616;40;20044;-63
2021/07/03 07:58:01;;;;;;;8.23;6.45;;;;;;;21.26;49.68;95969.19;3582973;40;20073;-64
2021/07/03 08:00:29;;;;;;;7.15;6.45;;;;;;;21.15;49.50;95974.91;3574249;40;20039;-63
2021/07/03 08:02:57;;;;;;;17.48;7.25;;;;;;;21.19;49.98;95978.53;3574105;40;20045;-63
2021/07/03 08:05:25;;;;;;;7.07;6.38;;;;;;;21.15;48.14;95974.13;3571103;40;20405;-63
2021/07/03 08:07:53;;;;;;;7.10;6.47;;;;;;;21.15;48.88;95976.81;3573702;40;20049;-63
2021/07/03 08:10:20;;;;;;;6.85;6.15;;;;;;;21.29;48.97;95976.59;3565813;40;20052;-65
2021/07/03 08:12:48;;;;;;;7.15;6.45;;;;;;;21.56;49.31;95977.22;3557437;40;20046;-64
2021/07/03 08:15:16;;;;;;;7.13;6.40;;;;;;;21.74;47.82;95981.41;3574418;40;20048;-63
2021/07/03 08:17:44;;;;;;;9.02;6.38;;;;;;;21.92;47.08;95978.59;3569109;40;20044;-64
2021/07/03 08:20:18;;;;;;;8.23;6.00;;;;;;;22.09;47.86;95972.31;3566024;40;20051;-65
2021/07/03 08:22:46;;;;;;;7.60;6.25;;;;;;;22.02;47.31;95982.81;3581961;40;20044;-65
2021/07/03 08:25:17;;;;;;;7.03;6.43;;;;;;;22.12;45.51;95975.09;3574477;40;20052;-65
2021/07/03 08:27:46;;;;;;;6.82;6.15;;;;;;;21.99;47.63;95973.47;3583300;40;20051;-62
2021/07/03 08:30:15;;;;;;;10.45;6.38;;;;;;;21.80;46.89;95973.94;3574309;40;20052;-63
2021/07/03 08:32:43;;;;;;;11.10;6.40;;;;;;;21.76;48.04;95976.50;3582146;40;20055;-64
2021/07/03 08:35:13;;;;;;;6.80;6.18;;;;;;;21.75;47.44;95976.84;3583077;40;20048;-63
2021/07/03 08:37:42;;;;;;;6.97;5.97;;;;;;;21.96;47.93;95979.53;3582565;40;20052;-63
2021/07/03 08:40:10;;;;;;;7.78;6.55;;;;;;;22.14;46.23;95969.44;3580275;40;20348;-67
2021/07/03 08:42:39;;;;;;;7.65;6.93;;;;;;;22.18;46.04;95975.69;3573661;40;20052;-65
2021/07/03 08:45:07;;;;;;;6.60;6.00;;;;;;;22.29;46.35;95973.41;3569251;40;20051;-65
2021/07/03 08:47:40;;;;;;;11.15;6.75;;;;;;;22.34;45.41;95967.03;3583301;40;20052;-63
2021/07/03 08:50:10;;;;;;;8.88;6.93;;;;;;;22.06;45.36;95973.75;3573660;40;20044;-65
2021/07/03 08:52:38;;;;;;;8.88;6.82;;;;;;;22.21;44.95;95968.91;3569276;40;20049;-63
2021/07/03 08:55:17;;;;;;;8.88;6.85;;;;;;;22.37;44.49;95971.75;3562475;40;20423;-64
2021/07/03 08:57:51;;;;;;;8.27;7.05;;;;;;;22.49;44.32;95979.88;3581889;40;20064;-64
2021/07/03 09:00:20;;;;;;;6.85;6.15;;;;;;;22.39;45.28;95981.03;3576427;40;20398;-64
2021/07/03 09:02:49;;;;;;;6.53;5.93;;;;;;;22.34;43.80;95983.16;3573400;40;20049;-64
2021/07/03 09:05:18;;;;;;;9.00;6.45;;;;;;;22.53;43.72;95977.31;3582140;40;20044;-64
2021/07/03 09:07:46;;;;;;;8.02;6.20;;;;;;;22.61;42.77;95983.72;3573642;40;20297;-63
2021/07/03 09:10:24;;;;;;;6.85;6.15;;;;;;;22.50;42.74;95972.59;3584565;40;20490;-65
2021/07/03 09:12:53;;;;;;;6.88;5.60;;;;;;;22.20;43.27;95973.47;3584460;40;20333;-65
2021/07/03 09:15:24;;;;;;;10.48;6.78;;;;;;;22.17;44.53;95978.72;3575374;40;20216;-63
2021/07/03 09:17:52;;;;;;;8.88;6.80;;;;;;;22.38;44.67;95968.72;3574353;40;20363;-63
2021/07/03 09:20:27;;;;;;;6.72;6.13;;;;;;;22.58;43.36;95977.13;3575427;40;20049;-64
2021/07/03 09:23:09;;;;;;;9.15;6.35;;;;;;;22.68;41.92;95968.63;3583147;40;20070;-65
2021/07/03 09:25:58;;;;;;;6.75;6.07;;;;;;;22.92;42.16;95964.41;3570870;40;20256;-65
2021/07/03 09:28:32;;;;;;;8.43;6.28;;;;;;;23.19;41.88;95967.56;3584537;40;20102;-65
2021/07/03 09:31:02;;;;;;;8.45;6.40;;;;;;;23.17;42.22;95957.13;3584321;40;20053;-65
2021/07/03 09:33:35;;;;;;;8.05;6.07;;;;;;;23.26;41.81;95961.66;3583400;40;20316;-65
2021/07/03 09:36:06;;;;;;;6.95;6.35;;;;;;;23.12;42.26;95953.88;3583957;40;20070;-64
2021/07/03 09:38:43;;;;;;;8.13;6.25;;;;;;;22.97;42.51;95956.09;3584862;40;20055;-65
2021/07/03 09:41:16;;;;;;;10.43;6.75;;;;;;;22.80;42.71;95967.06;3575402;40;20063;-65
2021/07/03 09:43:50;;;;;;;6.30;5.78;;;;;;;22.60;43.01;95966.78;3566499;40;20056;-65
2021/07/03 09:46:29;;;;;;;6.82;6.22;;;;;;;22.61;42.40;95972.97;3583636;40;20049;-64
2021/07/03 09:49:06;;;;;;;9.30;7.25;;;;;;;22.53;43.66;95959.28;3575064;40;20579;-65
2021/07/03 09:51:41;;;;;;;7.32;6.55;;;;;;;22.44;43.79;95963.19;3575480;40;20036;-64
2021/07/03 09:54:11;;;;;;;6.40;5.80;;;;;;;22.62;43.26;95959.19;3570599;40;20562;-64
2021/07/03 09:56:40;;;;;;;6.95;6.18;;;;;;;22.44;43.81;95958.56;3565222;40;20066;-65
2021/07/03 09:59:09;;;;;;;7.30;6.57;;;;;;;22.33;42.70;95954.72;3574972;40;20052;-63
2021/07/03 10:01:43;;;;;;;8.73;7.15;;;;;;;22.39;43.52;95954.16;3583608;40;20044;-63
2021/07/03 10:04:12;;;;;;;7.95;6.55;;;;;;;22.23;42.50;95961.28;3584401;40;20040;-63
2021/07/03 10:06:50;;;;;;;8.05;7.28;;;;;;;22.42;42.14;95950.06;3566456;40;20052;-64
2021/07/03 10:09:35;;;;;;;6.30;5.40;;;;;;;22.53;42.75;95947.75;3584592;40;20052;-66
2021/07/03 10:12:08;;;;;;;8.63;6.93;;;;;;;22.77;41.58;95938.94;3582098;40;20052;-63
2021/07/03 10:14:42;;;;;;;8.93;6.22;;;;;;;22.93;40.63;95944.47;3575153;40;20041;-64
2021/07/03 10:17:11;;;;;;;6.43;5.63;;;;;;;22.83;40.72;95937.59;3583815;40;20092;-64
2021/07/03 10:19:40;;;;;;;6.60;5.97;;;;;;;22.71;39.93;95937.59;3582420;40;20057;-63
2021/07/03 10:22:17;;;;;;;8.57;6.03;;;;;;;22.45;40.99;95929.81;3583232;40;20044;-63
2021/07/03 10:25:11;;;;;;;9.63;5.90;;;;;;;22.65;41.90;95923.56;3582122;40;20060;-64
2021/07/03 10:27:49;;;;;;;6.45;5.85;;;;;;;23.00;40.68;95931.22;3556097;40;20052;-65
2021/07/03 10:30:26;;;;;;;6.35;5.75;;;;;;;22.86;39.62;95928.88;3584170;40;20092;-64
2021/07/03 10:33:11;;;;;;;7.88;6.03;;;;;;;22.86;39.42;95933.44;3569742;40;20076;-64
2021/07/03 10:35:48;;;;;;;7.90;6.05;;;;;;;23.12;39.70;95930.47;3566878;40;20079;-65
2021/07/03 10:38:16;;;;;;;7.25;5.55;;;;;;;23.15;38.47;95924.38;3583939;40;20051;-64
2021/07/03 10:40:45;;;;;;;7.25;6.53;;;;;;;23.34;38.59;95931.91;3583749;40;20048;-64
2021/07/03 10:43:14;;;;;;;8.90;6.75;;;;;;;23.58;39.23;95926.84;3574893;40;20044;-64
2021/07/03 10:45:55;;;;;;;7.53;6.82;;;;;;;23.69;38.24;95919.09;3574595;40;20317;-64
2021/07/03 10:48:27;;;;;;;6.72;6.07;;;;;;;24.01;38.19;95913.84;3573390;40;20439;-64
2021/07/03 10:50:57;;;;;;;6.90;6.20;;;;;;;24.23;37.55;95904.41;3582571;40;20048;-64
2021/07/03 10:53:27;;;;;;;7.22;6.53;;;;;;;24.36;37.59;95907.81;3583264;40;20048;-64
2021/07/03 10:56:08;;;;;;;7.57;6.72;;;;;;;24.45;37.36;95900.34;3583960;40;20057;-64
2021/07/03 10:58:38;;;;;;;6.43;5.93;;;;;;;24.67;36.88;95907.06;3583700;40;20048;-64
2021/07/03 11:01:14;;;;;;;6.35;5.80;;;;;;;24.76;36.29;95901.53;3574487;40;20053;-63
2021/07/03 11:03:43;;;;;;;6.90;6.28;;;;;;;25.03;36.11;95905.25;3570522;40;20044;-64
2021/07/03 11:06:15;;;;;;;6.05;5.55;;;;;;;25.00;35.66;95884.38;3573344;40;20328;-64
2021/07/03 11:08:48;;;;;;;7.53;6.15;;;;;;;25.20;36.01;95889.03;3583780;40;20611;-64
2021/07/03 11:11:17;;;;;;;7.07;6.40;;;;;;;25.46;35.38;95902.78;3574288;40;20308;-64
2021/07/03 11:13:47;;;;;;;6.65;6.07;;;;;;;25.38;34.15;95890.22;3583722;40;20048;-64
2021/07/03 11:16:15;;;;;;;9.25;6.63;;;;;;;25.56;34.95;95879.03;3574082;40;20057;-63
2021/07/03 11:18:47;;;;;;;6.38;5.78;;;;;;;25.69;33.88;95891.28;3582880;40;20046;-63
2021/07/03 11:21:15;;;;;;;5.80;5.28;;;;;;;25.53;33.84;95882.47;3583606;40;20049;-64
2021/07/03 11:23:43;;;;;;;6.97;6.35;;;;;;;25.31;34.98;95885.44;3582947;40;20043;-64
2021/07/03 11:26:13;;;;;;;7.82;6.75;;;;;;;25.24;34.77;95879.13;3583759;40;20383;-63
2021/07/03 11:28:48;;;;;;;7.78;6.75;;;;;;;25.28;34.40;95879.97;3583863;40;20044;-63
2021/07/03 11:31:20;;;;;;;6.50;5.90;;;;;;;25.40;35.61;95881.75;3583950;40;20056;-64
2021/07/03 11:33:54;;;;;;;5.38;4.97;;;;;;;25.55;34.00;95875.56;3574184;40;20044;-64
2021/07/03 11:36:21;;;;;;;6.55;5.97;;;;;;;25.71;33.52;95880.13;3583177;40;20251;-64
2021/07/03 11:38:57;;;;;;;6.22;5.63;;;;;;;25.74;33.43;95874.78;3572994;40;20056;-64